EDDK/CGN METAR and TAF weather

Enter ICAO airport designator
Station Type Date Time Source
EDDK METAR 2020/01/21 18:20 UTC NOAA

EDDK 211820Z VRB01KT CAVOK M01/M02 Q1039 NOSIG


Station Type Date Time Source
EDDK Decoded METAR 2020/01/21 18:20 UTC NOAA

Koeln / Bonn, Germany (EDDK) 50-52N 007-10E 100M
Jan 21, 2020 - 01:20 PM EST / 2020.01.21 1820 UTC
Wind: Variable at 1 MPH (1 KT):0
Visibility: greater than 7 mile(s):0
Temperature: 30 F (-1 C)
Dew Point: 28 F (-2 C)
Relative Humidity: 92%
Pressure (altimeter): 30.68 in. Hg (1039 hPa)
ob: EDDK 211820Z VRB01KT CAVOK M01/M02 Q1039 NOSIG
cycle: 18

Station Type Date Time Source
EDDK TAF 2020/01/21 18:27 UTC NOAA

TAF EDDK 211700Z 2118/2224 VRB03KT CAVOK
BECMG 2122/2124 3000 BR
BECMG 2201/2204 1500 BR BKN004
TEMPO 2204/2211 0500 FZFG OVC001 PROB30
TEMPO 2204/2211 0200 FZFG OVC000
BECMG 2211/2214 3000 BR BKN005

Example: see airport list